createdAt,value
2022-08-31T00:01:07.943Z,23.89
2022-08-31T00:03:53.010Z,23.87
2022-08-31T00:06:20.909Z,23.62
2022-08-31T00:08:48.642Z,23.86
2022-08-31T00:11:18.632Z,23.87
2022-08-31T00:13:46.540Z,23.83
2022-08-31T00:16:14.364Z,23.81
2022-08-31T00:18:42.167Z,23.82
2022-08-31T00:21:09.865Z,23.82
2022-08-31T00:23:37.661Z,23.81
2022-08-31T00:26:05.447Z,23.80
2022-08-31T00:28:34.543Z,23.80
2022-08-31T00:31:02.278Z,23.78
2022-08-31T00:33:30.106Z,23.75
2022-08-31T00:35:58.689Z,23.74
2022-08-31T00:38:26.420Z,23.76
2022-08-31T00:40:54.159Z,23.74
2022-08-31T00:43:46.100Z,23.76
2022-08-31T00:46:16.876Z,23.72
2022-08-31T00:48:46.617Z,23.73
2022-08-31T00:51:15.275Z,23.44
2022-08-31T00:53:48.089Z,23.70
2022-08-31T00:56:18.719Z,23.69
2022-08-31T00:58:48.921Z,23.68
2022-08-31T01:01:22.859Z,23.67
2022-08-31T01:03:50.674Z,23.67
2022-08-31T01:06:18.722Z,23.66
2022-08-31T01:08:46.475Z,23.01
2022-08-31T01:11:14.259Z,23.64
2022-08-31T01:13:42.021Z,23.63
2022-08-31T01:16:13.169Z,23.49
2022-08-31T01:18:40.938Z,23.28
2022-08-31T01:21:17.480Z,23.37
2022-08-31T01:23:46.652Z,23.25
2022-08-31T01:26:16.918Z,23.57
2022-08-31T01:28:44.760Z,23.56
2022-08-31T01:31:17.066Z,23.58
2022-08-31T01:33:44.819Z,23.56
2022-08-31T01:36:15.986Z,23.55
2022-08-31T01:38:44.187Z,23.52
2022-08-31T01:41:14.335Z,23.53
2022-08-31T01:43:42.260Z,23.52
2022-08-31T01:46:12.578Z,23.50
2022-08-31T01:48:41.583Z,23.46
2022-08-31T01:51:10.796Z,23.39
2022-08-31T01:53:40.297Z,23.47
2022-08-31T01:56:13.787Z,23.47
2022-08-31T01:58:41.683Z,22.87
2022-08-31T02:01:33.581Z,23.43
2022-08-31T02:04:00.471Z,23.41
2022-08-31T02:06:28.192Z,23.33
2022-08-31T02:08:55.906Z,23.34
2022-08-31T02:11:24.955Z,23.36
2022-08-31T02:13:52.686Z,23.35
2022-08-31T02:16:20.445Z,23.34
2022-08-31T02:18:48.218Z,23.27
2022-08-31T02:21:15.947Z,23.29
2022-08-31T02:23:43.693Z,23.27
2022-08-31T02:26:12.606Z,23.28
2022-08-31T02:28:41.881Z,23.03
2022-08-31T02:31:09.647Z,23.25
2022-08-31T02:33:37.402Z,23.23
2022-08-31T02:36:05.502Z,23.22
2022-08-31T02:38:33.754Z,23.20
2022-08-31T02:41:02.331Z,23.20
2022-08-31T02:43:30.151Z,23.18
2022-08-31T02:45:59.243Z,23.17
2022-08-31T02:48:26.992Z,23.12
2022-08-31T02:50:54.758Z,22.61
2022-08-31T02:53:23.434Z,22.83
2022-08-31T02:55:52.065Z,23.08
2022-08-31T02:58:24.022Z,23.10
2022-08-31T03:00:51.929Z,23.10
2022-08-31T03:03:21.938Z,23.08
2022-08-31T03:05:49.442Z,23.05
2022-08-31T03:08:17.133Z,23.04
2022-08-31T03:10:44.860Z,23.04
2022-08-31T03:13:12.603Z,23.03
2022-08-31T03:15:40.391Z,23.02
2022-08-31T03:18:08.115Z,23.01
2022-08-31T03:20:37.378Z,23.00
2022-08-31T03:23:05.104Z,22.64
2022-08-31T03:25:33.390Z,22.85
2022-08-31T03:28:01.104Z,22.98
2022-08-31T03:30:29.713Z,22.98
2022-08-31T03:33:02.483Z,22.97
2022-08-31T03:35:30.894Z,22.96
2022-08-31T03:38:01.233Z,22.95
2022-08-31T03:40:29.025Z,22.95
2022-08-31T03:42:57.981Z,22.95
2022-08-31T03:45:26.536Z,22.62
2022-08-31T03:47:54.226Z,22.94
2022-08-31T03:50:22.279Z,22.92
2022-08-31T03:52:50.005Z,22.91
2022-08-31T03:55:19.286Z,22.90
2022-08-31T03:57:46.984Z,22.90
2022-08-31T04:00:15.462Z,22.89
2022-08-31T04:02:43.434Z,22.56
2022-08-31T04:05:13.339Z,22.87
2022-08-31T04:07:42.610Z,22.87
2022-08-31T04:10:11.514Z,22.82
2022-08-31T04:12:40.729Z,22.84
2022-08-31T04:15:09.049Z,22.83
2022-08-31T04:17:36.750Z,22.80
2022-08-31T04:20:05.105Z,22.81
2022-08-31T04:22:32.803Z,22.79
2022-08-31T04:25:00.532Z,22.80
2022-08-31T04:27:28.222Z,22.78
2022-08-31T04:29:57.287Z,22.77
2022-08-31T04:32:25.007Z,22.76
2022-08-31T04:34:55.072Z,22.76
2022-08-31T04:37:24.320Z,22.74
2022-08-31T04:39:52.449Z,22.74
2022-08-31T04:42:20.189Z,22.73
2022-08-31T04:44:48.127Z,22.27
2022-08-31T04:47:17.159Z,22.72
2022-08-31T04:49:44.889Z,22.72
2022-08-31T04:52:12.595Z,22.70
2022-08-31T04:54:40.342Z,22.70
2022-08-31T04:57:08.066Z,22.71
2022-08-31T04:59:35.800Z,22.70
2022-08-31T05:02:04.078Z,22.72
2022-08-31T05:04:33.315Z,22.71
2022-08-31T05:07:01.014Z,22.70
2022-08-31T05:09:28.830Z,22.70
2022-08-31T05:11:56.607Z,22.70
2022-08-31T05:14:24.450Z,22.71
2022-08-31T05:16:52.491Z,22.69
2022-08-31T05:19:20.341Z,22.37
2022-08-31T05:21:49.478Z,22.68
2022-08-31T05:24:18.664Z,22.66
2022-08-31T05:26:48.236Z,22.25
2022-08-31T05:29:17.231Z,22.67
2022-08-31T05:31:49.086Z,22.13
2022-08-31T05:34:19.354Z,22.60
2022-08-31T05:36:50.244Z,22.23
2022-08-31T05:39:18.016Z,22.63
2022-08-31T05:41:46.502Z,22.65
2022-08-31T05:44:14.427Z,22.36
2022-08-31T05:46:42.385Z,22.79
2022-08-31T05:49:11.518Z,22.86
2022-08-31T05:51:39.648Z,22.48
2022-08-31T05:54:10.761Z,22.84
2022-08-31T05:56:38.608Z,22.79
2022-08-31T05:59:06.781Z,22.69
2022-08-31T06:01:36.072Z,22.67
2022-08-31T06:04:04.548Z,22.48
2022-08-31T06:06:32.291Z,22.74
2022-08-31T06:09:00.062Z,22.79
2022-08-31T06:11:30.107Z,22.57
2022-08-31T06:13:58.423Z,22.86
2022-08-31T06:16:26.398Z,22.91
2022-08-31T06:18:55.651Z,22.96
2022-08-31T06:21:24.413Z,22.99
2022-08-31T06:23:52.926Z,23.03
2022-08-31T06:26:21.625Z,22.99
2022-08-31T06:28:52.239Z,22.54
2022-08-31T06:31:25.095Z,23.16
2022-08-31T06:33:52.990Z,23.20
2022-08-31T06:36:21.883Z,23.23
2022-08-31T06:38:49.583Z,23.26
2022-08-31T06:41:18.293Z,23.28
2022-08-31T06:43:46.077Z,23.31
2022-08-31T06:46:15.442Z,23.01
2022-08-31T06:48:43.167Z,23.04
2022-08-31T06:51:11.033Z,23.35
2022-08-31T06:53:40.198Z,23.36
2022-08-31T06:56:20.296Z,23.40
2022-08-31T06:58:50.899Z,23.41
2022-08-31T07:01:35.261Z,23.44
2022-08-31T07:04:05.536Z,23.48
2022-08-31T07:06:35.461Z,23.19
2022-08-31T07:09:04.480Z,23.52
2022-08-31T07:11:33.832Z,23.23
2022-08-31T07:14:04.090Z,23.50
2022-08-31T07:16:33.309Z,23.50
2022-08-31T07:19:03.373Z,23.49
2022-08-31T07:21:31.518Z,23.46
2022-08-31T07:24:00.964Z,23.45
2022-08-31T07:26:32.443Z,23.47
2022-08-31T07:29:06.866Z,23.28
2022-08-31T07:31:40.278Z,23.52
2022-08-31T07:34:08.917Z,23.57
2022-08-31T07:36:56.834Z,23.72
2022-08-31T07:39:56.679Z,23.82
2022-08-31T07:42:28.588Z,23.55
2022-08-31T07:44:57.454Z,23.83
2022-08-31T07:47:28.355Z,23.85
2022-08-31T07:49:56.967Z,23.84
2022-08-31T07:52:25.695Z,23.51
2022-08-31T07:54:54.593Z,23.76
2022-08-31T07:57:25.681Z,23.86
2022-08-31T07:59:55.475Z,23.84
2022-08-31T08:02:23.612Z,23.84
2022-08-31T08:04:54.001Z,23.81
2022-08-31T08:07:21.740Z,23.79
2022-08-31T08:09:49.706Z,23.77
2022-08-31T08:12:22.490Z,23.77
2022-08-31T08:14:51.894Z,23.80
2022-08-31T08:17:19.597Z,23.81
2022-08-31T08:19:47.350Z,23.47
2022-08-31T08:22:30.648Z,23.85
2022-08-31T08:25:05.202Z,23.87
2022-08-31T08:27:33.962Z,23.86
2022-08-31T08:30:01.734Z,23.87
2022-08-31T08:32:31.509Z,23.90
2022-08-31T08:34:59.924Z,23.90
2022-08-31T08:37:54.230Z,23.92
2022-08-31T08:40:22.744Z,23.64
2022-08-31T08:42:50.523Z,23.94
2022-08-31T08:45:18.513Z,23.97
2022-08-31T08:47:51.668Z,23.95
2022-08-31T08:50:19.486Z,24.00
2022-08-31T08:52:48.610Z,24.03
2022-08-31T08:55:18.327Z,24.07
2022-08-31T08:57:47.142Z,24.09
2022-08-31T09:00:16.922Z,24.09
2022-08-31T09:02:49.866Z,24.02
2022-08-31T09:05:32.140Z,23.75
2022-08-31T09:08:18.126Z,24.19
2022-08-31T09:10:47.045Z,24.21
2022-08-31T09:13:21.172Z,24.24
2022-08-31T09:16:04.611Z,24.07
2022-08-31T09:18:46.632Z,24.04
2022-08-31T09:21:21.536Z,24.35
2022-08-31T09:23:54.249Z,24.19
2022-08-31T09:26:25.084Z,24.40
2022-08-31T09:28:52.924Z,24.40
2022-08-31T09:31:42.394Z,24.48
2022-08-31T09:34:12.547Z,24.18
2022-08-31T09:36:40.962Z,24.52
2022-08-31T09:39:21.597Z,24.28
2022-08-31T09:41:49.763Z,24.19
2022-08-31T09:44:31.472Z,24.60
2022-08-31T09:47:02.040Z,24.56
2022-08-31T09:49:30.748Z,24.67
2022-08-31T09:52:20.764Z,24.69
2022-08-31T09:55:13.344Z,24.68
2022-08-31T09:57:53.948Z,24.73
2022-08-31T10:00:36.303Z,24.51
2022-08-31T10:03:12.209Z,24.50
2022-08-31T10:05:42.532Z,24.78
2022-08-31T10:08:29.759Z,24.53
2022-08-31T10:10:59.176Z,24.82
2022-08-31T10:13:34.359Z,24.58
2022-08-31T10:16:06.795Z,24.62
2022-08-31T10:18:38.124Z,24.57
2022-08-31T10:21:08.497Z,24.60
2022-08-31T10:23:38.190Z,24.94
2022-08-31T10:26:10.087Z,24.93
2022-08-31T10:28:41.827Z,24.70
2022-08-31T10:31:13.714Z,24.92
2022-08-31T10:34:00.759Z,24.96
2022-08-31T10:36:36.736Z,24.94
2022-08-31T10:39:04.964Z,24.98
2022-08-31T10:41:35.990Z,24.96
2022-08-31T10:44:07.111Z,24.98
2022-08-31T10:46:35.648Z,24.98
2022-08-31T10:49:04.103Z,24.65
2022-08-31T10:51:47.408Z,24.99
2022-08-31T10:54:28.318Z,24.99
2022-08-31T10:57:01.703Z,24.99
2022-08-31T10:59:33.416Z,24.99
2022-08-31T11:02:09.287Z,24.50
2022-08-31T11:04:53.105Z,24.98
2022-08-31T11:07:27.343Z,24.96
2022-08-31T11:09:59.938Z,24.96
2022-08-31T11:12:31.314Z,24.86
2022-08-31T11:15:10.908Z,24.53
2022-08-31T11:17:47.365Z,24.95
2022-08-31T11:20:40.988Z,24.94
2022-08-31T11:23:27.896Z,24.95
2022-08-31T11:26:11.447Z,24.90
2022-08-31T11:28:41.516Z,24.91
2022-08-31T11:31:14.786Z,24.88
2022-08-31T11:34:12.250Z,24.90
2022-08-31T11:36:50.463Z,24.87
2022-08-31T11:39:40.217Z,24.88
2022-08-31T11:42:12.622Z,24.88
2022-08-31T11:45:07.239Z,24.88
2022-08-31T11:47:44.372Z,24.88
2022-08-31T11:50:28.229Z,24.86
2022-08-31T11:52:56.817Z,24.87
2022-08-31T11:55:27.105Z,24.90
2022-08-31T11:58:33.767Z,24.89
2022-08-31T12:01:25.712Z,24.88
2022-08-31T12:03:55.884Z,24.88
2022-08-31T12:07:09.065Z,24.91
2022-08-31T12:10:15.163Z,24.93
2022-08-31T12:13:25.284Z,24.96
2022-08-31T12:16:04.180Z,24.54
2022-08-31T12:19:06.598Z,25.00
2022-08-31T12:21:58.153Z,24.99
2022-08-31T12:24:31.317Z,24.98
2022-08-31T12:27:08.481Z,24.99
2022-08-31T12:29:38.381Z,24.98
2022-08-31T12:32:19.149Z,24.76
2022-08-31T12:34:50.919Z,25.01
2022-08-31T12:37:21.284Z,25.03
2022-08-31T12:39:49.829Z,25.06
2022-08-31T12:42:19.540Z,25.06
2022-08-31T12:44:50.787Z,24.75
2022-08-31T12:47:24.232Z,25.09
2022-08-31T12:50:08.759Z,25.12
2022-08-31T12:52:43.902Z,25.15
2022-08-31T12:55:16.746Z,25.14
2022-08-31T12:58:05.177Z,25.18
2022-08-31T13:00:34.168Z,24.95
2022-08-31T13:03:15.495Z,25.20
2022-08-31T13:05:46.628Z,25.23
2022-08-31T13:08:22.075Z,24.95
2022-08-31T13:10:50.626Z,25.27
2022-08-31T13:13:23.072Z,25.28
2022-08-31T13:15:50.818Z,25.30
2022-08-31T13:18:23.168Z,25.32
2022-08-31T13:20:56.214Z,25.08
2022-08-31T13:23:27.681Z,25.02
2022-08-31T13:26:00.782Z,25.06
2022-08-31T13:28:30.423Z,25.11
2022-08-31T13:31:02.820Z,25.33
2022-08-31T13:33:32.350Z,25.33
2022-08-31T13:36:04.656Z,25.32
2022-08-31T13:38:43.188Z,25.32
2022-08-31T13:41:17.233Z,25.38
2022-08-31T13:43:58.815Z,25.28
2022-08-31T13:46:41.803Z,25.42
2022-08-31T13:49:21.995Z,25.44
2022-08-31T13:51:51.058Z,25.52
2022-08-31T13:54:26.767Z,25.62
2022-08-31T13:56:58.898Z,25.53
2022-08-31T13:59:32.962Z,25.77
2022-08-31T14:02:01.968Z,25.46
2022-08-31T14:04:43.966Z,25.82
2022-08-31T14:07:16.970Z,25.88
2022-08-31T14:09:45.808Z,25.92
2022-08-31T14:12:21.942Z,25.90
2022-08-31T14:14:50.236Z,25.87
2022-08-31T14:17:18.089Z,25.97
2022-08-31T14:19:46.089Z,25.97
2022-08-31T14:22:28.068Z,25.98
2022-08-31T14:24:56.479Z,25.98
2022-08-31T14:27:24.326Z,25.62
2022-08-31T14:29:52.926Z,26.02
2022-08-31T14:32:22.690Z,26.02
2022-08-31T14:34:51.205Z,26.01
2022-08-31T14:37:22.425Z,26.02
2022-08-31T14:39:51.512Z,26.07
2022-08-31T14:42:21.363Z,25.92
2022-08-31T14:44:56.517Z,26.12
2022-08-31T14:47:25.188Z,26.18
2022-08-31T14:49:52.940Z,26.00
2022-08-31T14:52:21.990Z,26.24
2022-08-31T14:54:49.772Z,25.60
2022-08-31T14:57:19.427Z,26.02
2022-08-31T14:59:47.753Z,26.36
2022-08-31T15:02:21.596Z,26.39
2022-08-31T15:04:49.459Z,26.43
2022-08-31T15:07:17.257Z,26.46
2022-08-31T15:09:47.840Z,26.48
2022-08-31T15:12:18.024Z,26.53
2022-08-31T15:14:47.322Z,26.54
2022-08-31T15:17:19.182Z,26.27
2022-08-31T15:19:50.233Z,26.58
2022-08-31T15:22:18.246Z,26.63
2022-08-31T15:24:47.518Z,26.68
2022-08-31T15:27:15.543Z,26.70
2022-08-31T15:29:43.458Z,26.71
2022-08-31T15:32:11.250Z,26.74
2022-08-31T15:34:39.264Z,26.72
2022-08-31T15:37:07.700Z,26.79
2022-08-31T15:39:36.589Z,26.59
2022-08-31T15:42:09.390Z,26.87
2022-08-31T15:44:37.245Z,26.85
2022-08-31T15:47:22.353Z,26.87
2022-08-31T15:49:51.127Z,26.89
2022-08-31T15:52:19.817Z,26.59
2022-08-31T15:54:48.545Z,26.69
2022-08-31T15:57:17.658Z,27.01
2022-08-31T15:59:46.031Z,27.05
2022-08-31T16:02:14.717Z,27.06
2022-08-31T16:04:43.455Z,26.77
2022-08-31T16:07:11.322Z,27.08
2022-08-31T16:09:40.880Z,26.88
2022-08-31T16:12:12.080Z,26.90
2022-08-31T16:14:44.521Z,27.16
2022-08-31T16:17:12.371Z,27.16
2022-08-31T16:19:40.761Z,27.20
2022-08-31T16:22:08.871Z,27.21
2022-08-31T16:24:37.181Z,27.21
2022-08-31T16:27:06.432Z,27.23
2022-08-31T16:29:34.332Z,26.88
2022-08-31T16:32:03.876Z,27.23
2022-08-31T16:34:31.769Z,27.23
2022-08-31T16:37:01.114Z,27.25
2022-08-31T16:39:28.988Z,27.28
2022-08-31T16:44:20.326Z,27.29
2022-08-31T16:46:48.442Z,27.31
2022-08-31T16:49:36.024Z,27.35
2022-08-31T16:52:06.120Z,27.39
2022-08-31T16:54:34.120Z,27.08
2022-08-31T16:57:02.033Z,27.44
2022-08-31T16:59:30.273Z,27.17
2022-08-31T17:01:58.405Z,27.48
2022-08-31T17:07:16.287Z,27.09
2022-08-31T17:09:44.149Z,27.46
2022-08-31T17:12:13.806Z,27.46
2022-08-31T17:14:46.559Z,27.47
2022-08-31T17:17:15.612Z,27.48
2022-08-31T17:19:45.238Z,27.37
2022-08-31T17:22:21.339Z,27.47
2022-08-31T17:24:50.464Z,27.49
2022-08-31T17:27:20.383Z,26.99
2022-08-31T17:29:49.961Z,27.42
2022-08-31T17:32:19.994Z,27.41
2022-08-31T17:34:51.620Z,27.38
2022-08-31T17:37:25.195Z,27.07
2022-08-31T17:39:53.158Z,27.26
2022-08-31T17:42:21.218Z,27.18
2022-08-31T17:44:50.375Z,27.11
2022-08-31T17:47:18.250Z,27.04
2022-08-31T17:49:46.806Z,26.99
2022-08-31T17:52:16.106Z,26.92
2022-08-31T17:54:45.365Z,26.84
2022-08-31T17:57:14.056Z,26.81
2022-08-31T17:59:42.808Z,26.75
2022-08-31T18:02:11.511Z,26.71
2022-08-31T18:04:39.511Z,26.66
2022-08-31T18:07:07.817Z,26.32
2022-08-31T18:09:40.374Z,26.59
2022-08-31T18:12:08.447Z,26.55
2022-08-31T18:14:38.123Z,26.53
2022-08-31T18:17:08.234Z,26.19
2022-08-31T18:19:36.400Z,26.43
2022-08-31T18:22:04.396Z,25.96
2022-08-31T18:24:34.187Z,26.38
2022-08-31T18:27:04.311Z,26.34
2022-08-31T18:29:34.060Z,26.09
2022-08-31T18:32:04.020Z,25.98
2022-08-31T18:34:32.037Z,26.23
2022-08-31T18:36:59.949Z,26.18
2022-08-31T18:39:50.659Z,25.65
2022-08-31T18:42:32.702Z,26.14
2022-08-31T18:45:19.835Z,26.11
2022-08-31T18:48:07.249Z,26.08
2022-08-31T18:50:37.166Z,26.04
2022-08-31T18:53:11.142Z,26.02
2022-08-31T18:55:43.527Z,25.98
2022-08-31T18:58:12.841Z,25.97
2022-08-31T19:00:40.915Z,25.93
2022-08-31T19:03:08.817Z,25.92
2022-08-31T19:05:39.374Z,25.88
2022-08-31T19:08:07.198Z,25.85
2022-08-31T19:10:35.846Z,25.73
2022-08-31T19:13:07.603Z,25.80
2022-08-31T19:15:40.140Z,25.58
2022-08-31T19:18:08.080Z,25.75
2022-08-31T19:20:36.328Z,25.36
2022-08-31T19:23:04.176Z,25.70
2022-08-31T19:25:32.611Z,25.68
2022-08-31T19:28:01.747Z,25.65
2022-08-31T19:30:29.869Z,25.25
2022-08-31T19:32:59.322Z,25.62
2022-08-31T19:35:27.466Z,25.60
2022-08-31T19:37:56.338Z,25.57
2022-08-31T19:40:42.984Z,25.55
2022-08-31T19:46:16.037Z,25.49
2022-08-31T19:48:45.641Z,25.27
2022-08-31T19:51:14.294Z,25.42
2022-08-31T19:53:45.172Z,25.44
2022-08-31T19:56:14.749Z,25.42
2022-08-31T19:58:42.927Z,25.39
2022-08-31T20:01:11.402Z,25.37
2022-08-31T20:03:39.177Z,25.37
2022-08-31T20:06:09.564Z,25.36
2022-08-31T20:08:37.697Z,25.28
2022-08-31T20:11:07.210Z,25.31
2022-08-31T20:13:35.121Z,25.30
2022-08-31T20:16:04.699Z,25.31
2022-08-31T20:18:32.624Z,25.27
2022-08-31T20:21:01.064Z,25.29
2022-08-31T20:23:30.795Z,25.27
2022-08-31T20:25:58.812Z,25.25
2022-08-31T20:28:27.591Z,25.23
2022-08-31T20:31:00.123Z,25.21
2022-08-31T20:33:28.264Z,24.84
2022-08-31T20:35:56.017Z,25.20
2022-08-31T20:38:23.852Z,25.17
2022-08-31T20:40:52.943Z,25.16
2022-08-31T20:43:21.413Z,25.15
2022-08-31T20:45:49.412Z,25.12
2022-08-31T20:48:34.782Z,25.10
2022-08-31T20:51:15.940Z,25.08
2022-08-31T20:53:44.506Z,25.06
2022-08-31T20:56:14.744Z,25.04
2022-08-31T20:58:45.097Z,25.04
2022-08-31T21:01:13.682Z,24.75
2022-08-31T21:03:41.745Z,24.97
2022-08-31T21:06:11.626Z,24.75
2022-08-31T21:08:39.353Z,24.92
2022-08-31T21:11:15.810Z,24.88
2022-08-31T21:13:44.681Z,24.89
2022-08-31T21:16:12.511Z,24.87
2022-08-31T21:18:40.677Z,24.82
2022-08-31T21:21:23.362Z,24.86
2022-08-31T21:23:53.374Z,24.83
2022-08-31T21:26:28.930Z,24.79
2022-08-31T21:29:08.061Z,24.78
2022-08-31T21:32:03.403Z,24.77
2022-08-31T21:34:49.331Z,24.75
2022-08-31T21:37:28.486Z,24.73
2022-08-31T21:40:34.057Z,24.45
2022-08-31T21:44:00.319Z,24.70
2022-08-31T21:46:51.624Z,24.31
2022-08-31T21:49:36.550Z,24.34
2022-08-31T21:52:23.769Z,24.65
2022-08-31T21:54:56.528Z,24.52
2022-08-31T21:57:38.750Z,24.63
2022-08-31T22:01:09.781Z,24.61
2022-08-31T22:03:59.378Z,24.58
2022-08-31T22:09:44.436Z,24.28
2022-08-31T22:12:41.311Z,24.53
2022-08-31T22:15:11.333Z,24.52
2022-08-31T22:18:01.403Z,24.47
2022-08-31T22:20:31.712Z,24.46
2022-08-31T22:22:59.740Z,24.47
2022-08-31T22:25:27.625Z,24.45
2022-08-31T22:27:55.364Z,24.44
2022-08-31T22:30:24.008Z,24.43
2022-08-31T22:32:53.894Z,24.41
2022-08-31T22:35:22.243Z,24.39
2022-08-31T22:37:50.043Z,24.39
2022-08-31T22:40:20.322Z,24.33
2022-08-31T22:42:49.029Z,23.93
2022-08-31T22:45:17.178Z,24.36
2022-08-31T22:47:49.813Z,24.34
2022-08-31T22:50:19.636Z,24.34
2022-08-31T22:52:47.507Z,24.32
2022-08-31T22:55:15.271Z,24.30
2022-08-31T22:57:43.001Z,24.28
2022-08-31T23:00:13.190Z,24.28
2022-08-31T23:02:45.032Z,24.26
2022-08-31T23:05:14.128Z,24.01
2022-08-31T23:07:43.213Z,24.24
2022-08-31T23:10:11.088Z,24.23
2022-08-31T23:12:38.787Z,24.21
2022-08-31T23:15:10.487Z,24.21
2022-08-31T23:17:39.287Z,24.18
2022-08-31T23:20:07.728Z,24.16
2022-08-31T23:22:35.561Z,24.13
2022-08-31T23:25:05.821Z,24.13
2022-08-31T23:27:33.511Z,24.09
2022-08-31T23:30:01.385Z,24.08
2022-08-31T23:32:29.173Z,24.08
2022-08-31T23:34:58.056Z,23.57
2022-08-31T23:37:26.080Z,24.06
2022-08-31T23:39:54.371Z,24.04
2022-08-31T23:42:23.610Z,24.04
2022-08-31T23:44:51.387Z,23.99
2022-08-31T23:47:21.367Z,23.97
2022-08-31T23:49:51.142Z,23.92
2022-08-31T23:52:21.390Z,23.90
2022-08-31T23:54:49.817Z,23.39
2022-08-31T23:57:32.358Z,23.92
